Station History


Daily Summary for February 3, 2012 Units:  English    Metric   Both
« Previous Day
Next Day »
Daily Weekly Monthly Yearly Custom
  High: Low: Average:
Temperature: 70.3 °F 34.5 °F 49.2 °F
Dew Point: 47.7 °F 33.5 °F 38.3 °F
Humidity: 98% 27% 72%
Wind Speed: 3.5mph 0.0mph 1.7mph
Wind Gust: 3.5mph - -
Wind- - SSW
Pressure: 30.07 in 29.97 in -
Precipitation: 0.00 in    
Historical Graphs
 
 
Tabular Data for February 3, 2012
Time Temperature Dew Point Pressure Wind Wind Speed Wind Gust Humidity Rainfall Rate (Hourly)
00:02 38.9 °F 37.0 °F 30.00 in Calm     93% 0.00 in
00:07 38.7 °F 36.9 °F 30.00 in Calm     93% 0.00 in
00:12 38.5 °F 36.9 °F 30.00 in Calm     94% 0.00 in
00:17 38.7 °F 37.4 °F 30.00 in Calm     95% 0.00 in
00:22 39.1 °F 37.8 °F 30.00 in Calm     95% 0.00 in
00:27 39.5 °F 38.5 °F 30.00 in Calm     96% 0.00 in
00:32 39.7 °F 38.7 °F 30.00 in Calm     96% 0.00 in
00:37 39.9 °F 38.9 °F 30.01 in Calm     96% 0.00 in
00:42 39.8 °F 38.8 °F 30.01 in Calm     96% 0.00 in
00:47 39.7 °F 38.4 °F 30.01 in Calm     95% 0.00 in
00:52 40.6 °F 39.5 °F 30.01 in Calm     96% 0.00 in
00:57 40.9 °F 39.8 °F 30.01 in Calm     96% 0.00 in
01:02 40.8 °F 39.5 °F 30.01 in Calm     95% 0.00 in
01:07 40.6 °F 39.3 °F 30.01 in Calm     95% 0.00 in
01:12 40.5 °F 39.2 °F 30.01 in Calm     95% 0.00 in
01:17 40.2 °F 38.9 °F 30.01 in Calm     95% 0.00 in
01:22 39.9 °F 38.3 °F 30.01 in Calm     94% 0.00 in
01:27 39.5 °F 37.9 °F 30.01 in Calm     94% 0.00 in
01:32 39.4 °F 38.1 °F 30.01 in Calm     95% 0.00 in
01:37 39.2 °F 37.9 °F 30.01 in Calm     95% 0.00 in
01:39 39.2 °F 37.9 °F 30.01 in Calm     95% 0.00 in
01:44 39.1 °F 37.8 °F 30.01 in Calm     95% 0.00 in
01:49 38.8 °F 37.2 °F 30.01 in Calm     94% 0.00 in
01:54 38.5 °F 36.9 °F 30.01 in Calm     94% 0.00 in
01:59 38.3 °F 37.0 °F 30.01 in Calm     95% 0.00 in
02:04 38.4 °F 37.1 °F 30.01 in Calm     95% 0.00 in
02:09 38.3 °F 37.0 °F 30.01 in Calm     95% 0.00 in
02:14 38.0 °F 36.7 °F 30.01 in Calm     95% 0.00 in
02:19 38.0 °F 36.7 °F 30.01 in Calm     95% 0.00 in
02:24 38.1 °F 36.8 °F 30.01 in Calm     95% 0.00 in
02:29 38.0 °F 36.7 °F 30.01 in Calm     95% 0.00 in
02:34 37.9 °F 36.6 °F 30.01 in Calm     95% 0.00 in
02:39 37.7 °F 36.4 °F 30.01 in Calm     95% 0.00 in
02:44 37.7 °F 36.4 °F 30.01 in Calm     95% 0.00 in
02:49 37.5 °F 36.2 °F 30.01 in Calm     95% 0.00 in
02:54 37.4 °F 36.1 °F 30.01 in Calm     95% 0.00 in
02:59 37.2 °F 35.9 °F 30.01 in Calm     95% 0.00 in
03:04 36.9 °F 35.6 °F 30.01 in Calm     95% 0.00 in
03:09 36.7 °F 35.4 °F 30.01 in Calm     95% 0.00 in
03:14 36.7 °F 35.4 °F 30.01 in Calm     95% 0.00 in
03:19 36.5 °F 35.2 °F 30.01 in Calm     95% 0.00 in
03:24 36.4 °F 35.1 °F 30.01 in Calm     95% 0.00 in
03:29 36.4 °F 35.1 °F 30.01 in Calm     95% 0.00 in
03:34 36.3 °F 35.0 °F 30.01 in Calm     95% 0.00 in
03:39 36.3 °F 35.0 °F 30.01 in Calm     95% 0.00 in
03:44 36.3 °F 35.3 °F 30.00 in Calm     96% 0.00 in
03:49 36.3 °F 35.3 °F 30.00 in Calm     96% 0.00 in
03:54 36.4 °F 35.4 °F 30.00 in Calm     96% 0.00 in
03:59 36.4 °F 35.4 °F 30.00 in Calm     96% 0.00 in
04:04 36.5 °F 35.5 °F 30.00 in Calm     96% 0.00 in
04:09 36.5 °F 35.5 °F 30.00 in Calm     96% 0.00 in
04:14 36.5 °F 35.5 °F 30.00 in Calm     96% 0.00 in
04:19 36.4 °F 35.4 °F 30.00 in Calm     96% 0.00 in
04:24 36.3 °F 35.3 °F 30.01 in Calm     96% 0.00 in
04:29 36.2 °F 35.2 °F 30.00 in Calm     96% 0.00 in
04:34 36.7 °F 35.7 °F 30.01 in Calm     96% 0.00 in
04:39 37.2 °F 36.4 °F 30.01 in Calm     97% 0.00 in
04:44 37.1 °F 36.1 °F 30.01 in Calm     96% 0.00 in
04:49 36.9 °F 35.9 °F 30.01 in Calm     96% 0.00 in
04:54 36.7 °F 35.7 °F 30.01 in Calm     96% 0.00 in
04:59 36.4 °F 35.4 °F 30.01 in Calm     96% 0.00 in
05:04 36.1 °F 35.1 °F 30.01 in Calm     96% 0.00 in
05:09 35.9 °F 34.6 °F 30.01 in Calm     95% 0.00 in
05:14 36.0 °F 35.0 °F 30.01 in Calm     96% 0.00 in
05:19 36.3 °F 35.3 °F 30.01 in Calm     96% 0.00 in
05:24 36.1 °F 35.1 °F 30.01 in Calm     96% 0.00 in
05:29 36.1 °F 35.1 °F 30.02 in Calm     96% 0.00 in
05:34 35.9 °F 34.9 °F 30.01 in Calm     96% 0.00 in
05:39 35.9 °F 34.9 °F 30.02 in Calm     96% 0.00 in
05:44 35.9 °F 34.9 °F 30.02 in Calm     96% 0.00 in
05:49 35.7 °F 34.7 °F 30.02 in Calm     96% 0.00 in
05:54 35.6 °F 34.6 °F 30.02 in Calm     96% 0.00 in
05:59 35.7 °F 34.7 °F 30.02 in Calm     96% 0.00 in
06:04 35.5 °F 34.5 °F 30.02 in Calm     96% 0.00 in
06:09 35.3 °F 34.3 °F 30.02 in Calm     96% 0.00 in
06:14 35.1 °F 34.1 °F 30.03 in Calm     96% 0.00 in
06:19 34.8 °F 33.8 °F 30.03 in Calm     96% 0.00 in
06:24 34.7 °F 33.7 °F 30.03 in Calm     96% 0.00 in
06:29 34.7 °F 33.7 °F 30.03 in Calm     96% 0.00 in
06:34 34.9 °F 33.9 °F 30.03 in Calm     96% 0.00 in
06:39 34.9 °F 33.9 °F 30.03 in Calm     96% 0.00 in
06:44 34.8 °F 33.8 °F 30.03 in Calm     96% 0.00 in
06:50 34.8 °F 33.8 °F 30.04 in Calm     96% 0.00 in
06:55 34.7 °F 33.7 °F 30.04 in Calm     96% 0.00 in
07:00 34.6 °F 33.6 °F 30.04 in Calm     96% 0.00 in
07:05 34.5 °F 33.5 °F 30.04 in Calm     96% 0.00 in
07:56 37.7 °F 37.2 °F 30.05 in Calm     98% 0.00 in
08:01 38.3 °F 37.8 °F 30.05 in Calm     98% 0.00 in
08:06 38.8 °F 38.3 °F 30.05 in Calm     98% 0.00 in
08:11 39.2 °F 38.7 °F 30.05 in Calm     98% 0.00 in
08:16 39.5 °F 39.0 °F 30.05 in Calm     98% 0.00 in
08:21 40.1 °F 39.6 °F 30.05 in Calm     98% 0.00 in
08:26 40.6 °F 40.1 °F 30.05 in Calm     98% 0.00 in
08:32 41.0 °F 40.5 °F 30.05 in Calm     98% 0.00 in
08:37 41.3 °F 40.8 °F 30.05 in Calm     98% 0.00 in
08:41 41.9 °F 41.4 °F 30.05 in Calm     98% 0.00 in
08:47 42.5 °F 42.0 °F 30.05 in SW 1.1 mph 1.1 mph 98% 0.00 in
08:52 43.5 °F 42.7 °F 30.05 in Calm     97% 0.00 in
08:57 44.0 °F 42.4 °F 30.05 in Calm     94% 0.00 in
09:02 44.4 °F 42.5 °F 30.05 in SW 1.1 mph   93% 0.00 in
09:07 45.1 °F 42.9 °F 30.06 in Calm     92% 0.00 in
09:12 45.6 °F 42.8 °F 30.06 in Calm     90% 0.00 in
09:17 46.0 °F 43.5 °F 30.06 in Calm   0.1 mph 91% 0.00 in
09:22 46.5 °F 43.7 °F 30.06 in Calm     90% 0.00 in
09:27 47.2 °F 43.5 °F 30.06 in Calm     87% 0.00 in
09:32 47.7 °F 44.0 °F 30.06 in Calm     87% 0.00 in
09:37 48.5 °F 43.9 °F 30.06 in Calm     84% 0.00 in
09:42 49.1 °F 43.8 °F 30.06 in Calm     82% 0.00 in
09:47 49.5 °F 43.9 °F 30.06 in Calm     81% 0.00 in
09:52 50.1 °F 44.2 °F 30.06 in Calm     80% 0.00 in
09:57 50.6 °F 44.0 °F 30.06 in Calm     78% 0.00 in
10:02 51.2 °F 44.2 °F 30.06 in Calm     77% 0.00 in
10:07 51.6 °F 44.6 °F 30.06 in West 1.1 mph   77% 0.00 in
10:12 52.0 °F 44.7 °F 30.06 in North 1.1 mph 1.1 mph 76% 0.00 in
10:17 52.5 °F 44.8 °F 30.06 in North 1.1 mph   75% 0.00 in
10:22 52.8 °F 45.1 °F 30.07 in Calm     75% 0.00 in
10:27 53.2 °F 45.5 °F 30.06 in North 1.1 mph   75% 0.00 in
10:32 53.6 °F 45.2 °F 30.06 in NNW 1.1 mph 1.1 mph 73% 0.00 in
10:37 54.0 °F 46.3 °F 30.06 in NNW 2.3 mph 2.3 mph 75% 0.00 in
10:42 54.3 °F 47.2 °F 30.06 in NNW 1.1 mph 1.1 mph 77% 0.00 in
10:47 54.9 °F 47.1 °F 30.06 in Calm     75% 0.00 in
10:52 55.4 °F 47.2 °F 30.06 in Calm     74% 0.00 in
10:57 55.9 °F 47.4 °F 30.06 in West 1.1 mph 1.1 mph 73% 0.00 in
11:02 56.3 °F 46.6 °F 30.06 in Calm     70% 0.00 in
11:07 56.6 °F 46.9 °F 30.06 in WNW 1.0 mph 1.0 mph 70% 0.00 in
11:12 57.2 °F 47.1 °F 30.05 in West 2.3 mph 2.3 mph 69% 0.00 in
11:17 57.8 °F 46.9 °F 30.05 in NNW 1.1 mph 1.1 mph 67% 0.00 in
11:22 58.2 °F 47.7 °F 30.05 in West 2.3 mph 2.3 mph 68% 0.00 in
11:27 58.6 °F 46.9 °F 30.05 in West 1.1 mph 1.1 mph 65% 0.00 in
11:32 59.1 °F 46.9 °F 30.05 in NNE 1.1 mph 1.1 mph 64% 0.00 in
11:37 59.5 °F 44.7 °F 30.05 in North 2.3 mph 2.3 mph 58% 0.00 in
11:42 59.7 °F 46.2 °F 30.04 in NW 2.3 mph 2.3 mph 61% 0.00 in
11:47 60.3 °F 45.0 °F 30.04 in NNE 2.3 mph 2.3 mph 57% 0.00 in
11:52 60.6 °F 44.3 °F 30.04 in West 1.1 mph 1.1 mph 55% 0.00 in
11:57 61.2 °F 44.9 °F 30.04 in NW 2.0 mph 2.0 mph 55% 0.00 in
12:02 61.8 °F 44.5 °F 30.03 in West 1.1 mph 1.1 mph 53% 0.00 in
12:07 62.5 °F 44.1 °F 30.03 in SSE 1.1 mph 1.1 mph 51% 0.00 in
12:12 62.7 °F 43.8 °F 30.03 in NNW 3.5 mph 3.5 mph 50% 0.00 in
12:17 62.6 °F 43.2 °F 30.03 in SSW 3.5 mph 3.5 mph 49% 0.00 in
12:22 63.1 °F 43.6 °F 30.03 in West 1.1 mph 1.1 mph 49% 0.00 in
12:27 63.5 °F 44.0 °F 30.02 in West 2.3 mph 2.3 mph 49% 0.00 in
12:32 63.9 °F 43.8 °F 30.02 in NW 1.1 mph 1.1 mph 48% 0.00 in
12:37 63.9 °F 43.3 °F 30.02 in NW 1.1 mph 1.1 mph 47% 0.00 in
12:42 64.1 °F 44.0 °F 30.01 in NNW 1.1 mph 1.1 mph 48% 0.00 in
12:47 64.4 °F 40.8 °F 30.01 in NE 1.1 mph   42% 0.00 in
12:52 65.0 °F 41.9 °F 30.01 in WSW 1.1 mph 1.1 mph 43% 0.00 in
12:57 65.5 °F 41.2 °F 30.01 in SW 3.5 mph 3.5 mph 41% 0.00 in
13:02 65.8 °F 41.4 °F 30.01 in East 2.3 mph 2.3 mph 41% 0.00 in
13:07 66.0 °F 41.0 °F 30.00 in NE 1.1 mph 1.1 mph 40% 0.00 in
13:12 66.4 °F 40.0 °F 30.00 in NNW 2.3 mph 2.3 mph 38% 0.00 in
13:17 66.4 °F 38.6 °F 30.00 in NW 3.5 mph 3.5 mph 36% 0.00 in
13:22 66.6 °F 38.8 °F 29.99 in Calm   0.2 mph 36% 0.00 in
13:27 67.0 °F 39.1 °F 29.99 in NW 3.5 mph 3.5 mph 36% 0.00 in
13:32 67.2 °F 37.1 °F 29.99 in WNW 1.1 mph 1.1 mph 33% 0.00 in
13:37 67.2 °F 37.1 °F 29.99 in NW 2.3 mph 2.3 mph 33% 0.00 in
13:42 67.7 °F 38.3 °F 29.99 in West 2.3 mph 2.3 mph 34% 0.00 in
13:47 67.9 °F 37.7 °F 29.99 in Calm     33% 0.00 in
13:52 68.1 °F 37.1 °F 29.99 in West 3.5 mph   32% 0.00 in
13:58 68.3 °F 39.6 °F 29.99 in Calm     35% 0.00 in
14:03 68.6 °F 40.6 °F 29.98 in NE 2.3 mph 2.3 mph 36% 0.00 in
14:08 68.7 °F 39.9 °F 29.98 in NNW 1.1 mph 1.4 mph 35% 0.00 in
14:13 68.5 °F 39.8 °F 29.98 in NNW 2.3 mph 2.3 mph 35% 0.00 in
14:18 68.4 °F 38.9 °F 29.98 in ENE 2.3 mph 2.3 mph 34% 0.00 in
14:23 68.1 °F 38.7 °F 29.98 in NE 1.1 mph 1.1 mph 34% 0.00 in
14:28 68.4 °F 38.9 °F 29.98 in NNE 1.1 mph 1.1 mph 34% 0.00 in
14:33 68.3 °F 37.3 °F 29.98 in ENE 1.1 mph   32% 0.00 in
14:38 69.3 °F 40.5 °F 29.98 in Calm     35% 0.00 in
14:43 70.3 °F 37.4 °F 29.98 in ENE 1.1 mph 1.1 mph 30% 0.00 in
14:48 69.9 °F 36.2 °F 29.98 in ENE 2.3 mph   29% 0.00 in
14:53 70.0 °F 38.0 °F 29.98 in North 1.1 mph 1.1 mph 31% 0.00 in
14:58 70.1 °F 39.6 °F 29.98 in ENE 1.1 mph 1.1 mph 33% 0.00 in
15:03 69.4 °F 39.0 °F 29.98 in East 1.1 mph 1.1 mph 33% 0.00 in
15:08 69.4 °F 39.0 °F 29.98 in NE 2.3 mph 2.3 mph 33% 0.00 in
15:13 69.5 °F 36.7 °F 29.98 in ENE 3.5 mph 3.5 mph 30% 0.00 in
15:18 69.5 °F 39.1 °F 29.98 in ENE 1.1 mph   33% 0.00 in
15:23 70.1 °F 36.3 °F 29.98 in Calm     29% 0.00 in
15:28 70.0 °F 34.5 °F 29.98 in Calm     27% 0.00 in
15:33 70.1 °F 36.3 °F 29.98 in North 2.0 mph 2.0 mph 29% 0.00 in
15:38 70.1 °F 34.5 °F 29.98 in NNE 1.1 mph 1.1 mph 27% 0.00 in
15:43 70.2 °F 36.4 °F 29.97 in Calm     29% 0.00 in
15:48 70.3 °F 35.6 °F 29.97 in NE 1.1 mph 1.1 mph 28% 0.00 in
15:53 70.1 °F 35.5 °F 29.97 in Calm   0.1 mph 28% 0.00 in
15:58 69.7 °F 35.1 °F 29.97 in NNW 2.3 mph 2.3 mph 28% 0.00 in
16:03 69.1 °F 35.5 °F 29.97 in North 2.3 mph 2.3 mph 29% 0.00 in
16:08 69.0 °F 36.3 °F 29.97 in North 1.0 mph   30% 0.00 in
16:13 68.6 °F 35.1 °F 29.97 in NNE 1.1 mph 1.1 mph 29% 0.00 in
16:18 68.1 °F 35.5 °F 29.98 in ENE 1.1 mph   30% 0.00 in
16:23 67.7 °F 35.1 °F 29.97 in Calm     30% 0.00 in
16:28 67.2 °F 33.8 °F 29.97 in East 2.3 mph 2.3 mph 29% 0.00 in
16:34 66.8 °F 35.2 °F 29.97 in Calm     31% 0.00 in
16:39 66.3 °F 34.7 °F 29.97 in NW 2.3 mph 2.3 mph 31% 0.00 in
16:44 65.8 °F 34.3 °F 29.98 in North 1.1 mph 1.1 mph 31% 0.00 in
16:49 65.4 °F 34.0 °F 29.98 in North 1.1 mph 1.1 mph 31% 0.00 in
16:54 64.9 °F 34.3 °F 29.98 in Calm     32% 0.00 in
16:59 64.6 °F 34.8 °F 29.98 in NNW 1.1 mph 1.1 mph 33% 0.00 in
17:04 64.4 °F 35.4 °F 29.98 in NNW 1.1 mph   34% 0.00 in
17:09 64.1 °F 35.1 °F 29.98 in Calm     34% 0.00 in
17:14 63.7 °F 35.5 °F 29.98 in NNW 1.1 mph 1.1 mph 35% 0.00 in
17:19 63.3 °F 36.6 °F 29.98 in NNW 1.1 mph 1.1 mph 37% 0.00 in
17:24 62.8 °F 36.8 °F 29.98 in Calm     38% 0.00 in
17:29 62.2 °F 36.9 °F 29.98 in North 2.3 mph 2.3 mph 39% 0.00 in
17:34 61.6 °F 37.0 °F 29.98 in Calm     40% 0.00 in
17:39 61.1 °F 36.6 °F 29.98 in North 1.1 mph 1.1 mph 40% 0.00 in
17:44 60.5 °F 36.7 °F 29.99 in Calm     41% 0.00 in
17:49 59.9 °F 37.3 °F 29.99 in Calm     43% 0.00 in
17:54 59.1 °F 37.2 °F 29.99 in Calm     44% 0.00 in
17:59 58.1 °F 36.9 °F 29.99 in Calm     45% 0.00 in
18:04 57.1 °F 36.5 °F 29.99 in Calm     46% 0.00 in
18:09 56.3 °F 36.8 °F 29.99 in Calm     48% 0.00 in
18:14 55.5 °F 36.6 °F 29.99 in Calm     49% 0.00 in
18:19 55.1 °F 37.3 °F 29.99 in Calm     51% 0.00 in
18:24 55.3 °F 37.0 °F 29.99 in Calm     50% 0.00 in
18:29 55.4 °F 37.6 °F 29.99 in Calm     51% 0.00 in
18:34 55.3 °F 37.5 °F 29.99 in Calm     51% 0.00 in
18:39 54.9 °F 37.6 °F 30.00 in Calm     52% 0.00 in
18:44 54.1 °F 37.8 °F 29.99 in Calm     54% 0.00 in
18:49 53.5 °F 37.7 °F 30.00 in Calm     55% 0.00 in
18:54 53.2 °F 37.9 °F 30.00 in Calm     56% 0.00 in
18:59 53.1 °F 37.8 °F 30.00 in Calm     56% 0.00 in
19:04 52.7 °F 37.9 °F 30.00 in Calm     57% 0.00 in
19:09 52.2 °F 37.9 °F 30.00 in Calm     58% 0.00 in
19:14 51.9 °F 38.0 °F 30.00 in Calm     59% 0.00 in
19:19 51.8 °F 38.3 °F 30.01 in Calm     60% 0.00 in
19:24 51.7 °F 38.3 °F 30.01 in Calm     60% 0.00 in
19:29 51.3 °F 38.3 °F 30.01 in Calm     61% 0.00 in
19:34 50.6 °F 38.1 °F 30.01 in Calm     62% 0.00 in
19:39 49.9 °F 37.8 °F 30.01 in Calm     63% 0.00 in
19:44 49.4 °F 38.1 °F 30.01 in Calm     65% 0.00 in
19:49 48.8 °F 37.9 °F 30.01 in Calm     66% 0.00 in
19:54 48.4 °F 38.3 °F 30.01 in Calm     68% 0.00 in
19:59 47.9 °F 37.8 °F 30.01 in Calm     68% 0.00 in
20:04 47.3 °F 38.0 °F 30.01 in Calm     70% 0.00 in
20:09 46.9 °F 38.0 °F 30.02 in Calm     71% 0.00 in
20:14 46.5 °F 38.3 °F 30.02 in Calm     73% 0.00 in
20:19 46.2 °F 38.0 °F 30.02 in Calm     73% 0.00 in
20:24 45.9 °F 38.4 °F 30.02 in Calm     75% 0.00 in
20:29 45.6 °F 38.1 °F 30.02 in Calm     75% 0.00 in
20:34 45.5 °F 38.0 °F 30.02 in Calm     75% 0.00 in
20:39 45.3 °F 38.5 °F 30.02 in Calm     77% 0.00 in
20:44 45.0 °F 38.2 °F 30.02 in Calm     77% 0.00 in
20:49 44.8 °F 38.0 °F 30.02 in Calm     77% 0.00 in
20:54 44.7 °F 38.3 °F 30.02 in Calm     78% 0.00 in
20:59 44.5 °F 38.4 °F 30.02 in Calm     79% 0.00 in
21:00 44.5 °F 38.4 °F 30.02 in Calm     79% 0.00 in
21:01 44.5 °F 38.4 °F 30.02 in Calm     79% 0.00 in
21:06 44.3 °F 37.9 °F 30.03 in Calm     78% 0.00 in
21:11 44.1 °F 38.0 °F 30.03 in Calm     79% 0.00 in
21:16 43.9 °F 37.8 °F 30.03 in Calm     79% 0.00 in
21:21 43.6 °F 37.5 °F 30.03 in Calm     79% 0.00 in
21:26 43.5 °F 37.7 °F 30.03 in Calm     80% 0.00 in
21:31 43.1 °F 37.3 °F 30.03 in Calm     80% 0.00 in
21:36 42.8 °F 37.4 °F 30.03 in Calm     81% 0.00 in
21:41 42.5 °F 37.4 °F 30.03 in Calm     82% 0.00 in
21:46 42.4 °F 37.3 °F 30.03 in Calm     82% 0.00 in
21:51 42.2 °F 37.4 °F 30.03 in Calm     83% 0.00 in
21:56 42.0 °F 37.2 °F 30.03 in Calm     83% 0.00 in
22:01 41.7 °F 36.9 °F 30.03 in Calm     83% 0.00 in
22:06 41.4 °F 36.9 °F 30.04 in Calm     84% 0.00 in
22:11 41.2 °F 36.7 °F 30.03 in Calm     84% 0.00 in
22:16 40.9 °F 36.7 °F 30.04 in Calm     85% 0.00 in
22:21 40.7 °F 36.5 °F 30.04 in Calm     85% 0.00 in
22:26 40.7 °F 36.8 °F 30.04 in Calm     86% 0.00 in
22:31 40.7 °F 37.1 °F 30.03 in Calm     87% 0.00 in
22:36 41.0 °F 37.4 °F 30.04 in Calm     87% 0.00 in
22:41 41.0 °F 37.1 °F 30.04 in Calm     86% 0.00 in
22:46 41.2 °F 37.0 °F 30.04 in Calm     85% 0.00 in
22:51 41.5 °F 37.0 °F 30.04 in Calm     84% 0.00 in
22:56 41.4 °F 36.6 °F 30.04 in Calm     83% 0.00 in
23:01 41.6 °F 36.8 °F 30.05 in Calm     83% 0.00 in
23:07 41.6 °F 36.8 °F 30.05 in Calm     83% 0.00 in
23:12 41.5 °F 36.4 °F 30.05 in Calm     82% 0.00 in
23:17 41.4 °F 36.3 °F 30.05 in Calm     82% 0.00 in
23:22 41.1 °F 36.3 °F 30.05 in Calm     83% 0.00 in
23:27 40.9 °F 36.4 °F 30.05 in Calm     84% 0.00 in
23:32 40.8 °F 36.3 °F 30.05 in Calm     84% 0.00 in
23:37 40.7 °F 36.2 °F 30.05 in Calm     84% 0.00 in
23:42 40.7 °F 35.9 °F 30.06 in Calm     83% 0.00 in
23:47 40.6 °F 35.8 °F 30.06 in Calm     83% 0.00 in
23:52 40.4 °F 35.6 °F 30.05 in Calm     83% 0.00 in
23:57 40.2 °F 35.4 °F 30.05 in Calm     83% 0.00 in
Compliments of Weather Underground